createdAt,value
2023-02-16T00:00:59.474Z,25.80
2023-02-16T00:03:26.671Z,22.43
2023-02-16T00:05:53.788Z,19.93
2023-02-16T00:08:21.049Z,15.50
2023-02-16T00:11:08.246Z,17.43
2023-02-16T00:13:44.363Z,21.20
2023-02-16T00:16:15.283Z,27.87
2023-02-16T00:18:42.394Z,22.20
2023-02-16T00:21:09.502Z,17.60
2023-02-16T00:23:36.681Z,19.00
2023-02-16T00:26:03.809Z,20.37
2023-02-16T00:28:30.906Z,27.77
2023-02-16T00:30:58.147Z,26.80
2023-02-16T00:33:25.300Z,24.33
2023-02-16T00:35:52.445Z,24.80
2023-02-16T00:38:19.575Z,26.30
2023-02-16T00:40:46.697Z,26.23
2023-02-16T00:43:31.995Z,26.17
2023-02-16T00:45:59.174Z,26.00
2023-02-16T00:48:26.389Z,23.97
2023-02-16T00:50:53.563Z,25.80
2023-02-16T00:53:20.680Z,20.63
2023-02-16T00:55:47.829Z,22.27
2023-02-16T00:58:17.765Z,22.00
2023-02-16T01:00:48.506Z,22.10
2023-02-16T01:03:17.063Z,19.63
2023-02-16T01:05:44.308Z,17.30
2023-02-16T01:08:47.437Z,17.47
2023-02-16T01:11:14.607Z,17.93
2023-02-16T01:13:45.762Z,20.27
2023-02-16T01:16:20.040Z,17.00
2023-02-16T01:18:47.253Z,17.60
2023-02-16T01:21:14.367Z,19.10
2023-02-16T01:23:41.631Z,17.87
2023-02-16T01:26:12.473Z,19.77
2023-02-16T01:28:39.574Z,24.77
2023-02-16T01:31:07.124Z,24.70
2023-02-16T01:33:34.428Z,23.53
2023-02-16T01:36:01.556Z,27.83
2023-02-16T01:38:29.175Z,26.20
2023-02-16T01:40:58.393Z,21.80
2023-02-16T01:43:27.233Z,21.30
2023-02-16T01:46:17.781Z,21.13
2023-02-16T01:48:44.922Z,21.10
2023-02-16T01:51:22.984Z,23.13
2023-02-16T01:53:54.095Z,20.97
2023-02-16T01:56:31.877Z,22.83
2023-02-16T01:59:00.998Z,21.73
2023-02-16T02:01:37.561Z,32.77
2023-02-16T02:04:38.569Z,27.37
2023-02-16T02:07:05.750Z,31.70
2023-02-16T02:09:35.923Z,27.07
2023-02-16T02:12:11.228Z,23.90
2023-02-16T02:14:39.405Z,27.70
2023-02-16T02:17:10.017Z,23.03
2023-02-16T02:19:48.674Z,31.03
2023-02-16T02:22:43.547Z,28.33
2023-02-16T02:25:24.712Z,32.10
2023-02-16T02:27:54.253Z,35.53
2023-02-16T02:30:24.474Z,42.57
2023-02-16T02:33:10.374Z,44.13
2023-02-16T02:35:48.554Z,39.57
2023-02-16T02:38:21.858Z,38.53
2023-02-16T02:40:58.982Z,38.03
2023-02-16T02:43:28.673Z,41.17
2023-02-16T02:45:57.190Z,40.47
2023-02-16T02:48:24.557Z,47.70
2023-02-16T02:51:13.634Z,58.97
2023-02-16T02:53:41.978Z,112.30
2023-02-16T02:56:27.819Z,100.73
2023-02-16T02:59:15.746Z,79.27
2023-02-16T03:01:44.311Z,70.27
2023-02-16T03:04:11.492Z,77.53
2023-02-16T03:06:42.418Z,80.73
2023-02-16T03:09:14.179Z,64.13
2023-02-16T03:11:59.694Z,85.13
2023-02-16T03:14:26.815Z,94.20
2023-02-16T03:17:13.670Z,86.73
2023-02-16T03:19:59.872Z,92.30
2023-02-16T03:22:45.412Z,89.50
2023-02-16T03:25:31.225Z,89.10
2023-02-16T03:28:16.913Z,119.80
2023-02-16T03:30:44.117Z,98.40
2023-02-16T03:33:11.259Z,69.53
2023-02-16T03:35:38.332Z,43.40
2023-02-16T03:38:05.650Z,41.53
2023-02-16T03:40:34.873Z,45.40
2023-02-16T03:43:06.613Z,39.73
2023-02-16T03:45:35.020Z,43.30
2023-02-16T03:48:02.200Z,70.80
2023-02-16T03:50:29.332Z,44.87
2023-02-16T03:53:06.655Z,35.50
2023-02-16T03:55:37.047Z,32.23
2023-02-16T03:58:04.727Z,34.93
2023-02-16T04:00:31.837Z,48.00
2023-02-16T04:02:58.974Z,50.97
2023-02-16T04:05:26.079Z,61.87
2023-02-16T04:07:53.242Z,65.17
2023-02-16T04:10:20.494Z,66.63
2023-02-16T04:12:47.737Z,54.90
2023-02-16T04:15:16.327Z,51.17
2023-02-16T04:17:43.586Z,51.03
2023-02-16T04:20:11.786Z,47.70
2023-02-16T04:22:38.927Z,52.97
2023-02-16T04:25:06.351Z,39.20
2023-02-16T04:27:33.546Z,33.23
2023-02-16T04:30:00.695Z,37.07
2023-02-16T04:32:27.874Z,42.40
2023-02-16T04:34:55.005Z,41.73
2023-02-16T04:37:22.108Z,45.47
2023-02-16T04:39:49.272Z,57.23
2023-02-16T04:42:16.407Z,57.80
2023-02-16T04:44:43.501Z,47.67
2023-02-16T04:47:10.643Z,49.43
2023-02-16T04:49:37.739Z,61.60
2023-02-16T04:52:05.077Z,63.07
2023-02-16T04:54:32.733Z,73.20
2023-02-16T04:56:59.819Z,75.27
2023-02-16T04:59:26.941Z,93.23
2023-02-16T05:01:54.180Z,111.90
2023-02-16T05:04:21.470Z,145.97
2023-02-16T05:06:48.607Z,152.70
2023-02-16T05:09:15.741Z,137.33
2023-02-16T05:12:01.313Z,124.60
2023-02-16T05:14:47.452Z,243.93
2023-02-16T05:17:17.607Z,215.13
2023-02-16T05:19:45.454Z,191.77
2023-02-16T05:22:12.933Z,165.33
2023-02-16T05:24:40.114Z,178.80
2023-02-16T05:27:07.884Z,135.97
2023-02-16T05:29:35.251Z,81.63
2023-02-16T05:32:04.610Z,124.30
2023-02-16T05:34:31.959Z,100.00
2023-02-16T05:36:59.100Z,55.67
2023-02-16T05:39:26.269Z,42.90
2023-02-16T05:41:53.373Z,51.43
2023-02-16T05:44:20.492Z,51.57
2023-02-16T05:46:47.624Z,207.43
2023-02-16T05:49:14.912Z,61.90
2023-02-16T05:51:42.094Z,47.73
2023-02-16T05:54:10.756Z,38.17
2023-02-16T05:56:37.939Z,59.37
2023-02-16T05:59:05.196Z,60.33
2023-02-16T06:01:32.323Z,51.47
2023-02-16T06:03:59.514Z,71.10
2023-02-16T06:06:26.669Z,98.40
2023-02-16T06:08:53.816Z,82.23
2023-02-16T06:11:36.386Z,94.73
2023-02-16T06:14:07.661Z,82.67
2023-02-16T06:16:34.964Z,62.90
2023-02-16T06:19:02.157Z,60.53
2023-02-16T06:21:29.737Z,89.00
2023-02-16T06:23:56.883Z,127.17
2023-02-16T06:26:24.066Z,107.60
2023-02-16T06:28:51.182Z,208.63
2023-02-16T06:31:18.398Z,248.53
2023-02-16T06:33:45.670Z,184.80
2023-02-16T06:36:12.881Z,178.10
2023-02-16T06:38:40.054Z,91.00
2023-02-16T06:41:07.315Z,74.07
2023-02-16T06:43:34.460Z,74.03
2023-02-16T06:46:01.571Z,90.20
2023-02-16T06:48:28.757Z,119.70
2023-02-16T06:50:55.925Z,136.30
2023-02-16T06:53:23.138Z,162.77
2023-02-16T06:55:53.187Z,143.97
2023-02-16T06:58:20.421Z,132.77
2023-02-16T07:00:47.688Z,138.10
2023-02-16T07:03:14.984Z,161.20
2023-02-16T07:05:44.083Z,146.80
2023-02-16T07:08:11.254Z,128.00
2023-02-16T07:10:49.316Z,115.23
2023-02-16T07:13:17.035Z,149.07
2023-02-16T07:15:44.177Z,135.43
2023-02-16T07:18:11.399Z,107.63
2023-02-16T07:20:38.491Z,92.43
2023-02-16T07:23:05.631Z,93.27
2023-02-16T07:25:35.877Z,96.37
2023-02-16T07:28:03.197Z,81.63
2023-02-16T07:30:30.419Z,72.53
2023-02-16T07:32:57.752Z,56.03
2023-02-16T07:35:24.899Z,72.43
2023-02-16T07:37:52.052Z,80.57
2023-02-16T07:40:19.188Z,90.33
2023-02-16T07:42:46.290Z,95.23
2023-02-16T07:45:13.624Z,90.23
2023-02-16T07:47:40.736Z,101.10
2023-02-16T07:50:08.065Z,65.07
2023-02-16T07:52:35.299Z,68.83
2023-02-16T07:55:02.424Z,50.70
2023-02-16T07:57:29.664Z,57.90
2023-02-16T07:59:56.997Z,47.90
2023-02-16T08:02:24.394Z,51.57
2023-02-16T08:04:54.451Z,41.30
2023-02-16T08:07:21.617Z,51.03
2023-02-16T08:09:48.750Z,41.87
2023-02-16T08:12:15.940Z,39.83
2023-02-16T08:14:43.205Z,35.97
2023-02-16T08:17:10.364Z,36.60
2023-02-16T08:19:37.453Z,37.77
2023-02-16T08:22:04.621Z,33.97
2023-02-16T08:24:31.759Z,31.90
2023-02-16T08:26:59.917Z,31.77
2023-02-16T08:29:27.088Z,32.67
2023-02-16T08:31:56.797Z,30.77
2023-02-16T08:34:24.314Z,28.73
2023-02-16T08:36:56.524Z,29.80
2023-02-16T08:39:25.994Z,30.03
2023-02-16T08:41:53.353Z,32.07
2023-02-16T08:44:20.827Z,33.73
2023-02-16T08:46:48.282Z,33.13
2023-02-16T08:49:17.324Z,30.53
2023-02-16T08:51:45.387Z,30.93
2023-02-16T08:54:15.800Z,34.27
2023-02-16T08:56:46.979Z,29.70
2023-02-16T08:59:17.344Z,28.50
2023-02-16T09:01:44.864Z,29.33
2023-02-16T09:04:13.088Z,29.37
2023-02-16T09:06:40.785Z,28.27
2023-02-16T09:09:08.734Z,31.35
2023-02-16T09:11:36.228Z,25.10
2023-02-16T09:14:03.867Z,21.25
2023-02-16T09:16:35.387Z,19.42
2023-02-16T09:19:02.795Z,23.13
2023-02-16T09:21:33.055Z,20.65
2023-02-16T09:24:01.924Z,24.15
2023-02-16T09:26:29.685Z,26.13
2023-02-16T09:28:58.859Z,23.63
2023-02-16T09:31:29.012Z,26.92
2023-02-16T09:34:01.647Z,23.63
2023-02-16T09:36:28.804Z,29.13
2023-02-16T09:38:56.193Z,26.38
2023-02-16T09:41:32.547Z,23.15
2023-02-16T09:44:17.642Z,24.75
2023-02-16T09:46:44.816Z,22.60
2023-02-16T09:49:22.294Z,22.75
2023-02-16T09:51:49.481Z,26.63
2023-02-16T09:54:31.812Z,23.75
2023-02-16T09:57:00.768Z,25.85
2023-02-16T09:59:33.936Z,24.27
2023-02-16T10:02:03.294Z,24.42
2023-02-16T10:04:35.439Z,24.02
2023-02-16T10:07:06.232Z,24.27
2023-02-16T10:09:33.331Z,25.45
2023-02-16T10:12:05.991Z,23.67
2023-02-16T10:14:41.262Z,23.48
2023-02-16T10:17:29.328Z,22.08
2023-02-16T10:19:57.399Z,22.25
2023-02-16T10:22:41.241Z,20.63
2023-02-16T10:25:14.624Z,22.33
2023-02-16T10:27:42.572Z,24.30
2023-02-16T10:30:12.776Z,25.00
2023-02-16T10:32:44.045Z,25.20
2023-02-16T10:35:15.263Z,29.02
2023-02-16T10:37:49.076Z,26.58
2023-02-16T10:40:31.632Z,21.27
2023-02-16T10:43:01.860Z,22.67
2023-02-16T10:45:33.332Z,21.70
2023-02-16T10:48:00.542Z,22.00
2023-02-16T10:50:29.262Z,23.48
2023-02-16T10:53:00.787Z,20.92
2023-02-16T10:55:27.950Z,21.92
2023-02-16T10:57:58.991Z,21.77
2023-02-16T11:00:51.684Z,21.10
2023-02-16T11:03:19.227Z,22.10
2023-02-16T11:05:46.710Z,21.02
2023-02-16T11:08:14.191Z,19.75
2023-02-16T11:10:51.765Z,18.48
2023-02-16T11:13:25.036Z,19.42
2023-02-16T11:15:54.623Z,20.30
2023-02-16T11:18:33.133Z,20.60
2023-02-16T11:21:00.928Z,18.77
2023-02-16T11:23:31.850Z,17.73
2023-02-16T11:26:05.683Z,18.73
2023-02-16T11:28:43.118Z,17.52
2023-02-16T11:31:10.357Z,17.88
2023-02-16T11:33:37.943Z,19.13
2023-02-16T11:36:18.397Z,19.48
2023-02-16T11:38:45.625Z,17.17
2023-02-16T11:41:12.770Z,19.10
2023-02-16T11:43:39.981Z,21.55
2023-02-16T11:46:10.258Z,17.08
2023-02-16T11:48:38.033Z,15.90
2023-02-16T11:51:06.636Z,17.33
2023-02-16T11:53:34.847Z,15.63
2023-02-16T11:56:20.638Z,14.63
2023-02-16T11:59:00.575Z,21.75
2023-02-16T12:01:50.985Z,15.68
2023-02-16T12:04:36.928Z,17.00
2023-02-16T12:07:04.045Z,19.73
2023-02-16T12:09:36.958Z,16.08
2023-02-16T12:12:09.878Z,18.05
2023-02-16T12:14:56.234Z,17.52
2023-02-16T12:17:27.891Z,20.85
2023-02-16T12:20:06.927Z,19.88
2023-02-16T12:22:41.079Z,19.80
2023-02-16T12:25:23.425Z,21.58
2023-02-16T12:27:56.044Z,17.20
2023-02-16T12:30:29.307Z,16.85
2023-02-16T12:32:57.764Z,14.45
2023-02-16T12:35:43.657Z,15.35
2023-02-16T12:38:29.587Z,16.70
2023-02-16T12:41:05.684Z,16.50
2023-02-16T12:43:34.633Z,19.23
2023-02-16T12:46:21.829Z,17.23
2023-02-16T12:48:52.000Z,16.40
2023-02-16T12:51:20.359Z,16.67
2023-02-16T12:53:50.000Z,16.75
2023-02-16T12:56:18.563Z,16.83
2023-02-16T12:58:46.527Z,19.77
2023-02-16T13:01:18.157Z,19.05
2023-02-16T13:03:46.508Z,15.73
2023-02-16T13:06:17.140Z,17.92
2023-02-16T13:08:56.229Z,17.77
2023-02-16T13:11:31.309Z,18.20
2023-02-16T13:13:59.493Z,18.58
2023-02-16T13:16:36.556Z,18.20
2023-02-16T13:19:03.848Z,18.55
2023-02-16T13:21:33.316Z,19.65
2023-02-16T13:24:05.181Z,20.00
2023-02-16T13:26:35.359Z,22.10
2023-02-16T13:29:17.617Z,21.08
2023-02-16T13:31:47.989Z,21.45
2023-02-16T13:34:43.221Z,20.67
2023-02-16T13:37:13.762Z,18.90
2023-02-16T13:39:43.997Z,20.20
2023-02-16T13:42:17.944Z,34.33
2023-02-16T13:44:45.122Z,21.60
2023-02-16T13:47:13.037Z,20.40
2023-02-16T13:49:43.340Z,21.73
2023-02-16T13:52:11.165Z,20.30
2023-02-16T13:54:39.916Z,21.73
2023-02-16T13:57:11.782Z,20.35
2023-02-16T13:59:38.865Z,19.02
2023-02-16T14:02:12.671Z,18.02
2023-02-16T14:04:39.854Z,20.63
2023-02-16T14:07:07.322Z,20.55
2023-02-16T14:09:40.917Z,20.60
2023-02-16T14:12:11.612Z,20.98
2023-02-16T14:14:56.526Z,21.35
2023-02-16T14:17:31.098Z,23.35
2023-02-16T14:20:25.696Z,24.75
2023-02-16T14:22:53.630Z,22.77
2023-02-16T14:25:23.555Z,26.10
2023-02-16T14:27:54.898Z,22.55
2023-02-16T14:30:30.180Z,19.27
2023-02-16T14:33:00.474Z,20.48
2023-02-16T14:35:34.698Z,18.50
2023-02-16T14:38:08.329Z,21.50
2023-02-16T14:40:35.434Z,18.88
2023-02-16T14:43:05.136Z,18.35
2023-02-16T14:45:38.237Z,18.95
2023-02-16T14:48:11.073Z,20.63
2023-02-16T14:50:38.282Z,21.00
2023-02-16T14:53:20.579Z,21.58
2023-02-16T14:55:59.783Z,22.15
2023-02-16T14:58:27.759Z,25.38
2023-02-16T15:01:28.102Z,22.52
2023-02-16T15:03:56.253Z,21.85
2023-02-16T15:06:29.785Z,22.80
2023-02-16T15:08:57.283Z,18.75
2023-02-16T15:11:26.485Z,23.00
2023-02-16T15:13:53.609Z,24.10
2023-02-16T15:16:20.931Z,23.75
2023-02-16T15:18:50.048Z,18.73
2023-02-16T15:21:21.495Z,20.45
2023-02-16T15:23:52.173Z,20.42
2023-02-16T15:26:23.301Z,24.45
2023-02-16T15:29:00.239Z,24.20
2023-02-16T15:31:31.040Z,25.73
2023-02-16T15:33:58.277Z,23.38
2023-02-16T15:36:31.557Z,20.88
2023-02-16T15:38:59.718Z,22.75
2023-02-16T15:41:29.969Z,24.13
2023-02-16T15:43:57.324Z,22.02
2023-02-16T15:46:24.458Z,25.02
2023-02-16T15:48:51.617Z,25.13
2023-02-16T15:51:25.209Z,24.77
2023-02-16T15:53:53.314Z,25.00
2023-02-16T15:56:31.157Z,27.38
2023-02-16T15:58:58.828Z,27.05
2023-02-16T16:01:35.061Z,23.88
2023-02-16T16:04:02.919Z,26.38
2023-02-16T16:06:33.861Z,93.00
2023-02-16T16:09:01.046Z,66.90
2023-02-16T16:11:28.134Z,78.18
2023-02-16T16:13:55.327Z,69.38
2023-02-16T16:16:22.575Z,60.22
2023-02-16T16:18:51.410Z,48.50
2023-02-16T16:21:18.865Z,44.78
2023-02-16T16:23:56.589Z,155.68
2023-02-16T16:26:23.803Z,108.30
2023-02-16T16:28:51.252Z,101.03
2023-02-16T16:31:19.582Z,105.17
2023-02-16T16:34:02.938Z,100.38
2023-02-16T16:36:36.826Z,101.87
2023-02-16T16:39:10.128Z,114.03
2023-02-16T16:41:37.297Z,119.50
2023-02-16T16:44:04.486Z,96.00
2023-02-16T16:46:32.699Z,99.67
2023-02-16T16:49:00.708Z,104.17
2023-02-16T16:51:33.915Z,99.97
2023-02-16T16:54:05.502Z,143.30
2023-02-16T16:56:35.742Z,118.28
2023-02-16T16:59:02.941Z,126.30
2023-02-16T17:01:30.229Z,132.67
2023-02-16T17:03:57.510Z,175.67
2023-02-16T17:06:24.904Z,149.97
2023-02-16T17:08:52.127Z,155.83
2023-02-16T17:11:19.234Z,166.17
2023-02-16T17:13:46.353Z,179.33
2023-02-16T17:16:14.697Z,197.23
2023-02-16T17:18:41.861Z,209.23
2023-02-16T17:21:11.326Z,207.33
2023-02-16T17:23:45.183Z,214.47
2023-02-16T17:26:17.608Z,375.67
2023-02-16T17:28:44.771Z,290.57
2023-02-16T17:31:11.967Z,242.30
2023-02-16T17:33:39.126Z,248.23
2023-02-16T17:36:07.061Z,244.33
2023-02-16T17:38:34.311Z,203.43
2023-02-16T17:41:01.467Z,221.07
2023-02-16T17:43:28.728Z,229.90
2023-02-16T17:45:56.375Z,272.87
2023-02-16T17:48:26.974Z,453.63
2023-02-16T17:50:55.087Z,684.70
2023-02-16T17:53:22.791Z,477.03
2023-02-16T17:55:50.626Z,453.30
2023-02-16T17:58:18.098Z,465.13
2023-02-16T18:00:45.735Z,377.00
2023-02-16T18:03:12.869Z,349.77
2023-02-16T18:05:40.060Z,522.50
2023-02-16T18:08:07.258Z,398.70
2023-02-16T18:10:44.586Z,378.67
2023-02-16T18:13:11.874Z,355.70
2023-02-16T18:15:39.720Z,350.10
2023-02-16T18:18:07.023Z,317.23
2023-02-16T18:20:34.247Z,415.00
2023-02-16T18:23:01.418Z,375.07
2023-02-16T18:25:28.561Z,412.57
2023-02-16T18:27:55.724Z,314.70
2023-02-16T18:30:23.044Z,377.27
2023-02-16T18:32:50.669Z,365.80
2023-02-16T18:35:17.896Z,285.80
2023-02-16T18:37:45.350Z,287.53
2023-02-16T18:40:13.614Z,266.30
2023-02-16T18:42:40.741Z,262.90
2023-02-16T18:45:08.042Z,259.00
2023-02-16T18:47:36.581Z,278.73
2023-02-16T18:50:04.361Z,208.33
2023-02-16T18:52:31.467Z,258.03
2023-02-16T18:54:58.599Z,232.73
2023-02-16T18:57:25.763Z,215.97
2023-02-16T18:59:52.907Z,218.87
2023-02-16T19:02:20.050Z,216.87
2023-02-16T19:04:48.462Z,229.73
2023-02-16T19:07:15.589Z,206.30
2023-02-16T19:09:42.733Z,225.10
2023-02-16T19:12:09.911Z,215.40
2023-02-16T19:14:37.339Z,206.23
2023-02-16T19:17:04.481Z,229.00
2023-02-16T19:19:32.029Z,229.57
2023-02-16T19:21:59.239Z,191.40
2023-02-16T19:24:26.435Z,189.17
2023-02-16T19:26:53.623Z,197.10
2023-02-16T19:29:20.747Z,226.80
2023-02-16T19:31:48.063Z,244.30
2023-02-16T19:34:15.333Z,232.77
2023-02-16T19:36:42.447Z,229.73
2023-02-16T19:39:12.009Z,226.60
2023-02-16T19:41:39.808Z,214.10
2023-02-16T19:44:06.958Z,218.83
2023-02-16T19:46:34.634Z,246.57
2023-02-16T19:49:01.783Z,244.47
2023-02-16T19:51:28.899Z,292.47
2023-02-16T19:53:56.251Z,348.87
2023-02-16T19:56:24.307Z,308.83
2023-02-16T19:58:51.407Z,346.60
2023-02-16T20:01:19.578Z,306.07
2023-02-16T20:03:46.722Z,264.87
2023-02-16T20:06:24.289Z,221.40
2023-02-16T20:08:51.487Z,203.23
2023-02-16T20:11:19.164Z,270.63
2023-02-16T20:13:46.354Z,216.20
2023-02-16T20:16:13.617Z,232.43
2023-02-16T20:18:40.853Z,287.03
2023-02-16T20:21:08.715Z,295.33
2023-02-16T20:23:35.979Z,276.07
2023-02-16T20:26:05.380Z,274.93
2023-02-16T20:28:32.740Z,294.57
2023-02-16T20:30:59.926Z,280.83
2023-02-16T20:33:27.064Z,284.37
2023-02-16T20:35:54.186Z,245.33
2023-02-16T20:38:21.384Z,239.63
2023-02-16T20:40:48.486Z,236.07
2023-02-16T20:43:19.095Z,245.87
2023-02-16T20:45:46.185Z,207.53
2023-02-16T20:48:13.334Z,230.53
2023-02-16T20:50:40.490Z,219.33
2023-02-16T20:53:07.802Z,226.87
2023-02-16T20:55:34.942Z,275.63
2023-02-16T20:58:02.080Z,255.93
2023-02-16T21:00:29.774Z,232.50
2023-02-16T21:02:56.977Z,245.90
2023-02-16T21:05:24.163Z,246.97
2023-02-16T21:07:51.284Z,220.37
2023-02-16T21:10:18.436Z,207.97
2023-02-16T21:12:46.527Z,229.83
2023-02-16T21:15:13.658Z,221.10
2023-02-16T21:17:40.822Z,215.93
2023-02-16T21:20:08.258Z,168.27
2023-02-16T21:22:35.436Z,144.50
2023-02-16T21:25:02.693Z,150.93
2023-02-16T21:27:29.823Z,147.97
2023-02-16T21:29:56.954Z,160.97
2023-02-16T21:32:24.088Z,159.13
2023-02-16T21:34:51.220Z,166.70
2023-02-16T21:37:18.979Z,159.47
2023-02-16T21:40:04.923Z,164.13
2023-02-16T21:42:34.119Z,145.17
2023-02-16T21:45:13.375Z,122.13
2023-02-16T21:47:59.587Z,123.73
2023-02-16T21:50:27.102Z,149.87
2023-02-16T21:52:54.434Z,132.33
2023-02-16T21:55:40.359Z,122.57
2023-02-16T21:58:08.001Z,113.60
2023-02-16T22:00:41.651Z,111.53
2023-02-16T22:03:08.885Z,129.67
2023-02-16T22:05:36.197Z,114.23
2023-02-16T22:08:03.336Z,132.27
2023-02-16T22:10:30.542Z,122.77
2023-02-16T22:12:57.814Z,122.97
2023-02-16T22:15:26.478Z,121.53
2023-02-16T22:17:53.643Z,123.70
2023-02-16T22:20:20.811Z,123.17
2023-02-16T22:22:48.000Z,175.10
2023-02-16T22:25:15.155Z,274.90
2023-02-16T22:27:42.288Z,196.83
2023-02-16T22:30:09.710Z,114.70
2023-02-16T22:32:36.853Z,90.67
2023-02-16T22:35:04.062Z,103.17
2023-02-16T22:37:32.713Z,100.67
2023-02-16T22:39:59.874Z,108.03
2023-02-16T22:42:27.093Z,130.23
2023-02-16T22:44:54.218Z,161.53
2023-02-16T22:47:21.315Z,116.23
2023-02-16T22:49:48.403Z,112.60
2023-02-16T22:52:15.557Z,114.27
2023-02-16T22:54:42.705Z,111.67
2023-02-16T22:57:09.821Z,111.13
2023-02-16T22:59:37.003Z,155.57
2023-02-16T23:02:04.120Z,153.40
2023-02-16T23:04:31.251Z,119.97
2023-02-16T23:06:58.372Z,107.23
2023-02-16T23:09:25.501Z,107.07
2023-02-16T23:11:52.648Z,113.17
2023-02-16T23:14:20.682Z,177.37
2023-02-16T23:16:48.755Z,127.67
2023-02-16T23:19:16.907Z,97.93
2023-02-16T23:21:44.129Z,82.03
2023-02-16T23:24:15.070Z,84.30
2023-02-16T23:26:42.287Z,69.43
2023-02-16T23:29:09.520Z,69.20
2023-02-16T23:31:37.223Z,71.57
2023-02-16T23:37:02.466Z,103.97
2023-02-16T23:39:29.626Z,125.37
2023-02-16T23:41:56.766Z,108.97
2023-02-16T23:44:23.866Z,80.60
2023-02-16T23:46:51.043Z,58.33
2023-02-16T23:49:18.193Z,54.50
2023-02-16T23:51:45.297Z,56.70
2023-02-16T23:54:12.422Z,96.17
2023-02-16T23:56:40.116Z,96.93
2023-02-16T23:59:07.223Z,256.70
